NCAR-RAP Real-Time Weather Data

Output produced by METARs form (23 January 2018  15:39 UTC)
found at http://weather.rap.ucar.edu/surface/
 
RJTI 230700Z 25012KT 200V280 9999 FEW030 11/M01 Q1002
RJTI 230600Z 24016KT 210V270 9999 FEW030 11/M02 Q1002
RJTI 230500Z 24015KT 9999 FEW030 11/01 Q1001
RJTI 230400Z 23011G21KT 150V270 9999 FEW030 10/01 Q1001
RJTI 230300Z 24014KT 190V260 9999 FEW030 09/01 Q1002
RJTI 230200Z 22010G23KT 160V270 9999 FEW020 08/01 Q1003
RJTI 230100Z 18009KT 150V220 9999 FEW030 06/03 Q1005
RJTI 230000Z 17007KT 150V210 9999 FEW020 05/01 Q1006
RJTI 222330Z 18005KT 130V230 9999 FEW020 04/01 Q1006
RJTI 220700Z 36010KT 330V040 0800 SN FEW004 BKN006 BKN008 01/M00 Q1013
RJTI 220615Z 36009G20KT 320V090 0800 SN FEW004 BKN006 BKN008 01/M00 Q1014 RMK 1ST004 5ST006 7SC008 A2997
RJTI 220600Z 01011KT 330V040 2000 -SN FEW004 BKN006 BKN012 01/00 Q1014
RJTI 220500Z 01010KT 320V040 0800 SN FEW003 BKN005 BKN007 01/00 Q1015
RJTI 220432Z 36009KT 310V040 1200 -SN FEW006 BKN008 BKN010 01/M00 Q1016 RMK 1ST006 5ST008 7ST010 A3001
RJTI 220422Z 36009KT 290V050 3000 -SN FEW006 BKN008 BKN010 01/M00 Q1016 RMK 1ST006 5ST008 7ST010 A3002
RJTI 220400Z VRB09KT 7000 -SHSN FEW006 BKN008 BKN010 02/00 Q1016
RJTI 220300Z 36008KT 310V060 5000 -SHSN FEW006 BKN008 BKN025 02/00 Q1017
RJTI 220237Z 36009KT 290V040 4000 -SHSN FEW007 BKN009 BKN015 01/M00 Q1018 RMK 1ST007 5ST009 7SC015 A3008
RJTI 220200Z 36008KT 240V040 5000 -SN FEW010 SCT025 BKN030 02/M00 Q1019
RJTI 220100Z 36006KT 310V060 9999 -RASN FEW020 BKN030 BKN040 03/M01 Q1020
RJTI 220000Z 36007KT 300V050 9999 -RASN FEW020 BKN030 03/M02 Q1021
RJTI 212330Z 02008KT 340V140 9999 -RASN FEW020 BKN030 03/M03 Q1020
RJTI 210700Z 14006KT 9999 FEW030 10/02 Q1014
RJTI 210600Z 14006KT 9999 FEW030 11/02 Q1014
RJTI 210500Z 12008KT 9999 FEW030 11/01 Q1014
RJTI 210400Z 09004KT 040V170 9999 FEW030 SCT/// 10/M02 Q1014